Time;durP1;ratioP1;P1;durP2;ratioP2;P2;SDS_P1;SDS_P2;PMS_P1;PMS_P2;Temp;Humidity;BMP_temperature;BMP_pressure;BME280_temperature;BME280_humidity;BME280_pressure;Samples;Min_cycle;Max_cycle;Signal;HPM_P1;HPM_P2
2023/03/12 00:01:53;;;;;;;11.70;5.30;;;;;;;2.71;65.72;101296.41;6098533;19;20685;-73
2023/03/12 00:03:58;;;;;;;8.95;4.85;;;;;;;2.70;65.60;101297.28;6104396;19;20007;-73
2023/03/12 00:06:07;;;;;;;8.32;4.60;;;;;;;2.70;65.22;101299.88;6101761;19;20060;-72
2023/03/12 00:08:15;;;;;;;10.35;5.53;;;;;;;2.69;65.86;101295.56;6096936;19;20193;-72
2023/03/12 00:10:20;;;;;;;14.90;5.13;;;;;;;2.68;65.78;101291.22;6099192;19;20022;-73
2023/03/12 00:12:25;;;;;;;10.43;5.32;;;;;;;2.69;65.68;101298.16;6098296;19;20014;-72
2023/03/12 00:14:29;;;;;;;8.15;4.95;;;;;;;2.68;66.12;101293.81;6095755;19;20018;-72
2023/03/12 00:16:34;;;;;;;8.75;5.45;;;;;;;2.71;65.89;101293.81;6098365;19;20712;-72
2023/03/12 00:18:39;;;;;;;11.77;5.15;;;;;;;2.71;65.92;101292.06;6099336;19;20614;-72
2023/03/12 00:20:44;;;;;;;9.05;5.00;;;;;;;2.77;66.01;101289.50;6097856;19;20022;-72
2023/03/12 00:22:52;;;;;;;7.82;4.95;;;;;;;2.81;65.56;101279.97;6100180;19;20013;-72
2023/03/12 00:24:58;;;;;;;11.15;5.55;;;;;;;2.85;65.77;101274.78;6099639;19;20007;-72
2023/03/12 00:27:02;;;;;;;9.00;4.72;;;;;;;2.89;65.73;101272.16;6095211;19;20036;-72
2023/03/12 00:29:07;;;;;;;9.68;5.32;;;;;;;2.87;65.67;101269.59;6099204;19;20025;-72
2023/03/12 00:31:17;;;;;;;7.75;4.82;;;;;;;2.82;66.05;101267.00;6099017;19;20010;-72
2023/03/12 00:33:22;;;;;;;10.93;4.90;;;;;;;2.81;66.46;101272.16;6098378;19;20081;-72
2023/03/12 00:35:27;;;;;;;8.75;4.85;;;;;;;2.80;66.23;101270.47;6098818;19;20013;-72
2023/03/12 00:37:32;;;;;;;10.60;4.78;;;;;;;2.79;66.46;101272.19;6099580;19;20073;-72
2023/03/12 00:39:40;;;;;;;11.25;4.80;;;;;;;2.82;65.87;101276.50;6098989;19;20318;-72
2023/03/12 00:41:46;;;;;;;6.90;4.47;;;;;;;2.79;65.98;101274.78;6099042;19;20018;-72
2023/03/12 00:43:52;;;;;;;13.07;4.93;;;;;;;2.84;65.59;101269.56;6099554;19;20017;-73
2023/03/12 00:45:56;;;;;;;10.45;4.53;;;;;;;2.90;65.48;101264.38;6100627;19;20042;-72
2023/03/12 00:48:01;;;;;;;8.63;4.63;;;;;;;2.86;65.34;101252.25;6099206;19;20010;-72
2023/03/12 00:50:07;;;;;;;8.23;4.35;;;;;;;2.92;65.19;101247.06;6100552;19;20014;-72
2023/03/12 00:52:11;;;;;;;10.88;4.88;;;;;;;2.94;64.65;101250.50;6098909;19;20010;-72
2023/03/12 00:54:16;;;;;;;10.20;4.72;;;;;;;2.94;64.70;101250.50;6095845;19;20025;-73
2023/03/12 00:56:24;;;;;;;9.48;3.70;;;;;;;3.03;64.24;101250.50;6095195;19;20022;-72
2023/03/12 00:58:29;;;;;;;8.57;4.75;;;;;;;3.07;63.63;101251.34;6075436;19;20645;-72
2023/03/12 01:00:33;;;;;;;11.18;4.50;;;;;;;3.03;63.81;101252.25;6096548;19;20006;-73
2023/03/12 01:02:39;;;;;;;9.32;4.50;;;;;;;3.06;63.57;101252.22;6096726;19;20612;-72
2023/03/12 01:04:43;;;;;;;9.18;4.28;;;;;;;3.08;63.59;101261.75;6096044;19;20023;-72
2023/03/12 01:06:48;;;;;;;8.88;4.03;;;;;;;3.08;63.62;101260.84;6099423;19;20826;-72
2023/03/12 01:08:54;;;;;;;6.43;3.78;;;;;;;3.13;62.94;101264.31;6096112;19;20031;-72
2023/03/12 01:10:59;;;;;;;10.85;4.63;;;;;;;3.13;63.43;101260.84;6097740;19;20090;-72
2023/03/12 01:13:06;;;;;;;7.88;4.10;;;;;;;3.07;63.85;101256.53;6094714;19;20019;-72
2023/03/12 01:15:14;;;;;;;9.80;4.15;;;;;;;3.08;63.53;101255.66;6098410;19;20074;-72
2023/03/12 01:17:19;;;;;;;7.90;3.90;;;;;;;3.06;63.98;101245.28;6073048;19;20016;-72
2023/03/12 01:19:24;;;;;;;11.05;4.88;;;;;;;3.04;64.35;101244.44;6094759;19;20022;-72
2023/03/12 01:21:30;;;;;;;8.00;4.32;;;;;;;3.03;64.21;101240.13;6078896;19;20035;-72
2023/03/12 01:23:35;;;;;;;8.57;4.43;;;;;;;3.04;64.17;101231.44;6097776;19;20010;-71
2023/03/12 01:25:40;;;;;;;9.93;4.50;;;;;;;3.03;64.35;101228.88;6096838;19;20031;-72
2023/03/12 01:27:45;;;;;;;8.48;4.35;;;;;;;3.07;63.99;101228.84;6095920;19;20011;-72
2023/03/12 01:29:52;;;;;;;8.75;4.05;;;;;;;3.09;64.39;101231.44;6098154;19;20021;-72
2023/03/12 01:31:57;;;;;;;11.80;4.90;;;;;;;3.05;64.47;101233.19;6097193;19;20015;-72
2023/03/12 01:34:02;;;;;;;7.20;4.00;;;;;;;3.01;64.65;101223.69;6096446;19;20021;-72
2023/03/12 01:36:19;;;;;;;7.68;4.25;;;;;;;3.07;64.73;101218.44;6096663;19;20031;-72
2023/03/12 01:38:24;;;;;;;9.85;4.78;;;;;;;3.08;64.61;101217.59;6096580;19;20010;-72
2023/03/12 01:40:29;;;;;;;9.75;4.40;;;;;;;3.17;64.26;101206.31;6097187;19;20692;-72
2023/03/12 01:42:34;;;;;;;7.93;4.65;;;;;;;3.32;63.50;101209.69;6096910;19;20019;-71
2023/03/12 01:44:56;;;;;;;8.65;4.70;;;;;;;3.22;63.88;101209.75;6098871;19;20106;-72
2023/03/12 01:47:03;;;;;;;8.10;4.70;;;;;;;3.20;63.91;101195.91;6094649;19;20025;-72
2023/03/12 01:49:12;;;;;;;9.18;4.28;;;;;;;3.19;63.79;101199.38;6097587;19;20103;-73
2023/03/12 01:51:19;;;;;;;8.00;4.32;;;;;;;3.20;64.19;101189.84;6097810;19;20261;-72
2023/03/12 01:53:24;;;;;;;10.05;4.70;;;;;;;3.17;64.27;101195.91;6097871;19;20031;-72
2023/03/12 01:55:29;;;;;;;10.20;4.25;;;;;;;3.14;64.70;101189.88;6097483;19;20142;-72
2023/03/12 01:57:38;;;;;;;6.13;4.15;;;;;;;3.26;64.06;101190.66;6096543;19;20036;-72
2023/03/12 01:59:48;;;;;;;7.80;4.18;;;;;;;3.21;64.04;101183.78;6096890;19;20018;-72
2023/03/12 02:01:56;;;;;;;11.45;4.43;;;;;;;3.27;63.73;101179.44;6096809;19;20018;-74
2023/03/12 02:04:02;;;;;;;8.52;4.50;;;;;;;3.29;63.87;101176.81;6098489;19;20701;-72
2023/03/12 02:06:11;;;;;;;10.80;4.32;;;;;;;3.27;64.02;101175.97;6100625;19;20571;-72
2023/03/12 02:08:18;;;;;;;7.70;3.58;;;;;;;3.24;63.62;101168.19;6096360;19;20702;-72
2023/03/12 02:10:24;;;;;;;9.18;4.00;;;;;;;3.25;63.43;101168.19;6097082;19;20029;-72
2023/03/12 02:12:29;;;;;;;7.20;4.55;;;;;;;3.24;63.73;101160.41;6093668;19;20515;-73
2023/03/12 02:14:34;;;;;;;8.98;4.47;;;;;;;3.26;63.58;101163.84;6096331;19;20549;-72
2023/03/12 02:16:39;;;;;;;9.48;4.45;;;;;;;3.30;63.57;101157.78;6098228;19;20014;-73
2023/03/12 02:18:48;;;;;;;7.25;4.20;;;;;;;3.25;63.83;101157.78;6096275;19;20018;-72
2023/03/12 02:21:01;;;;;;;7.50;4.20;;;;;;;3.24;64.03;101150.03;6096866;19;20010;-72
2023/03/12 02:23:14;;;;;;;9.85;4.15;;;;;;;3.28;63.63;101149.13;6090884;19;20010;-72
2023/03/12 02:25:32;;;;;;;10.02;4.38;;;;;;;3.20;64.67;101143.09;6097135;19;20050;-73
2023/03/12 02:27:39;;;;;;;12.82;5.97;;;;;;;3.20;65.04;101153.50;6096870;19;20051;-73
2023/03/12 02:29:46;;;;;;;8.15;4.40;;;;;;;3.16;65.28;101142.28;6101017;19;20025;-72
2023/03/12 02:31:55;;;;;;;9.82;4.38;;;;;;;3.12;65.90;101139.69;6102103;19;20108;-72
2023/03/12 02:34:00;;;;;;;8.38;4.68;;;;;;;3.16;66.14;101142.28;6102890;19;20015;-72
2023/03/12 02:36:05;;;;;;;12.98;4.50;;;;;;;3.14;67.08;101143.16;6102055;19;20010;-72
2023/03/12 02:38:33;;;;;;;11.63;4.22;;;;;;;3.09;67.48;101137.97;6102848;19;20011;-72
2023/03/12 02:40:45;;;;;;;6.97;4.60;;;;;;;3.04;68.46;101137.97;6102636;19;20017;-73
2023/03/12 02:42:50;;;;;;;10.95;4.45;;;;;;;3.12;68.13;101139.69;6103935;19;20007;-72
2023/03/12 02:44:55;;;;;;;10.27;4.35;;;;;;;3.22;68.19;101130.97;6105167;19;20035;-72
2023/03/12 02:47:02;;;;;;;10.45;5.20;;;;;;;3.24;68.34;101135.28;6104682;19;20657;-72
2023/03/12 02:49:07;;;;;;;8.20;4.80;;;;;;;3.17;68.99;101127.53;6098918;19;20031;-72
2023/03/12 02:51:12;;;;;;;9.00;4.82;;;;;;;3.16;69.54;101123.19;6101997;19;20043;-74
2023/03/12 02:53:17;;;;;;;6.40;4.13;;;;;;;3.13;70.25;101123.22;6101904;19;20015;-73
2023/03/12 02:55:22;;;;;;;7.88;4.30;;;;;;;3.09;70.92;101122.38;6102885;19;20503;-72
2023/03/12 02:57:30;;;;;;;8.95;4.63;;;;;;;3.03;70.66;101115.50;6103941;19;20015;-73
2023/03/12 02:59:35;;;;;;;11.35;4.50;;;;;;;3.08;70.34;101116.34;6103624;19;20010;-72
2023/03/12 03:01:40;;;;;;;9.30;4.45;;;;;;;3.10;70.61;101108.53;6102739;19;20021;-73
2023/03/12 03:03:45;;;;;;;7.03;4.30;;;;;;;3.10;70.50;101105.06;6102199;19;20569;-72
2023/03/12 03:05:50;;;;;;;8.43;4.18;;;;;;;3.14;70.32;101094.66;6103766;19;20253;-72
2023/03/12 03:07:55;;;;;;;9.38;4.55;;;;;;;2.99;70.93;101100.78;6102496;19;20007;-73
2023/03/12 03:10:03;;;;;;;10.18;4.75;;;;;;;3.04;69.95;101090.41;6101110;19;20043;-72
2023/03/12 03:12:08;;;;;;;8.02;5.03;;;;;;;3.00;70.87;101081.78;6099098;19;20039;-72
2023/03/12 03:14:16;;;;;;;9.13;4.32;;;;;;;3.04;70.71;101091.25;6101833;19;20767;-73
2023/03/12 03:16:20;;;;;;;10.02;4.60;;;;;;;3.01;71.09;101086.09;6100584;19;20010;-72
2023/03/12 03:18:25;;;;;;;7.05;4.20;;;;;;;2.93;71.92;101069.69;6102836;19;20022;-72
2023/03/12 03:20:30;;;;;;;7.88;4.32;;;;;;;3.01;71.96;101069.66;6100440;19;20014;-73
2023/03/12 03:22:34;;;;;;;11.88;4.35;;;;;;;3.03;72.99;101068.78;6102116;19;20018;-73
2023/03/12 03:24:40;;;;;;;11.43;4.25;;;;;;;3.02;72.97;101064.44;6101604;19;20662;-74
2023/03/12 03:26:45;;;;;;;7.63;4.55;;;;;;;2.98;73.58;101067.06;6102074;19;20094;-73
2023/03/12 03:28:50;;;;;;;6.80;3.75;;;;;;;3.00;73.71;101061.00;6103515;19;20439;-72
2023/03/12 03:31:00;;;;;;;10.38;4.85;;;;;;;3.02;74.29;101056.63;6102953;19;20018;-72
2023/03/12 03:33:06;;;;;;;9.30;4.10;;;;;;;3.01;74.55;101054.06;6097261;19;20082;-73
2023/03/12 03:35:11;;;;;;;9.70;5.10;;;;;;;3.00;75.01;101062.72;6100147;19;20686;-73
2023/03/12 03:37:16;;;;;;;13.40;5.07;;;;;;;2.97;75.32;101055.81;6100605;19;20018;-72
2023/03/12 03:39:21;;;;;;;7.07;4.05;;;;;;;2.99;75.33;101046.28;6101445;19;20034;-72
2023/03/12 03:41:25;;;;;;;8.35;4.72;;;;;;;2.97;75.66;101037.63;6102394;19;20035;-73
2023/03/12 03:43:33;;;;;;;9.43;4.32;;;;;;;2.98;75.48;101043.72;6101431;19;20031;-72
2023/03/12 03:45:38;;;;;;;8.70;4.18;;;;;;;2.95;75.40;101043.69;6079678;19;20708;-73
2023/03/12 03:47:45;;;;;;;12.88;4.75;;;;;;;2.94;75.89;101035.06;6077977;19;20022;-72
2023/03/12 03:49:51;;;;;;;8.27;4.75;;;;;;;2.98;75.60;101029.00;6099717;19;20014;-73
2023/03/12 03:51:56;;;;;;;6.80;4.30;;;;;;;2.97;75.85;101019.47;6101170;19;20048;-73
2023/03/12 03:54:01;;;;;;;10.00;4.22;;;;;;;2.97;75.76;101027.25;6100442;19;20114;-73
2023/03/12 03:56:10;;;;;;;9.48;4.45;;;;;;;3.00;75.48;101036.75;6099815;19;20021;-72
2023/03/12 03:58:15;;;;;;;11.27;4.80;;;;;;;2.93;75.71;101020.38;6099781;19;20114;-73
2023/03/12 04:00:21;;;;;;;9.63;4.80;;;;;;;2.98;74.64;101018.59;6100576;19;20014;-73
2023/03/12 04:02:26;;;;;;;7.18;4.20;;;;;;;3.07;74.13;101023.72;6099451;19;20010;-73
2023/03/12 04:04:33;;;;;;;11.65;5.22;;;;;;;3.01;74.12;101017.72;6099130;19;20011;-73
2023/03/12 04:06:39;;;;;;;9.35;4.80;;;;;;;2.99;74.19;101015.13;6100594;19;20040;-73
2023/03/12 04:08:44;;;;;;;8.88;4.65;;;;;;;3.08;74.24;101014.19;6099083;19;20015;-72
2023/03/12 04:10:49;;;;;;;11.18;5.45;;;;;;;2.98;74.92;101015.16;6100406;19;20038;-73
2023/03/12 04:12:54;;;;;;;9.68;5.15;;;;;;;2.95;75.13;101022.94;6099395;19;20309;-72
2023/03/12 04:15:01;;;;;;;8.85;5.30;;;;;;;2.91;76.10;101024.69;6100200;19;20019;-73
2023/03/12 04:17:06;;;;;;;12.73;5.05;;;;;;;2.83;77.81;101024.75;6095967;19;20015;-72
2023/03/12 04:19:11;;;;;;;10.25;4.95;;;;;;;2.74;79.20;101031.72;6099693;19;20015;-74
2023/03/12 04:21:18;;;;;;;12.50;5.97;;;;;;;2.63;81.32;101027.47;6099004;19;20039;-72
2023/03/12 04:23:23;;;;;;;12.52;6.45;;;;;;;2.54;82.78;101017.13;6100226;19;20022;-73
2023/03/12 04:25:28;;;;;;;11.63;5.93;;;;;;;2.48;83.84;101017.16;6098699;19;20478;-73
2023/03/12 04:27:33;;;;;;;12.50;6.20;;;;;;;2.45;84.58;100995.53;6099366;19;20011;-72
2023/03/12 04:29:39;;;;;;;12.52;5.70;;;;;;;2.39;84.96;100993.84;6098928;19;20503;-73
2023/03/12 04:31:46;;;;;;;13.13;6.53;;;;;;;2.34;85.82;100987.81;6098744;19;20039;-73
2023/03/12 04:33:51;;;;;;;10.38;5.97;;;;;;;2.30;86.08;100991.28;6098254;19;20070;-72
2023/03/12 04:35:56;;;;;;;10.32;6.38;;;;;;;2.37;86.71;100977.41;6098265;19;20022;-73
2023/03/12 04:38:05;;;;;;;12.50;6.72;;;;;;;2.32;87.17;100969.69;6100522;19;20086;-74
2023/03/12 04:40:15;;;;;;;12.52;6.45;;;;;;;2.29;87.74;100958.44;6098992;19;20021;-74
2023/03/12 04:42:19;;;;;;;10.45;6.03;;;;;;;2.38;87.36;100948.03;6100917;19;20019;-74
2023/03/12 04:44:25;;;;;;;10.98;6.72;;;;;;;2.30;88.09;100949.81;6097149;19;20756;-75
2023/03/12 04:46:30;;;;;;;13.50;6.82;;;;;;;2.35;88.11;100953.25;6097209;19;20093;-74
2023/03/12 04:48:35;;;;;;;14.50;7.10;;;;;;;2.23;88.70;100945.50;6099170;19;20652;-72
2023/03/12 04:50:41;;;;;;;13.07;7.43;;;;;;;2.20;88.58;100956.75;6101220;19;20240;-74
2023/03/12 04:52:46;;;;;;;15.02;6.85;;;;;;;2.21;89.10;100958.47;6098838;19;20674;-73
2023/03/12 04:54:53;;;;;;;11.77;6.60;;;;;;;2.18;89.55;100961.06;6099882;19;20010;-73
2023/03/12 04:56:59;;;;;;;17.10;7.53;;;;;;;2.19;89.54;100960.22;6099288;19;20077;-73
2023/03/12 04:59:04;;;;;;;10.93;7.47;;;;;;;2.18;89.72;100948.13;6096283;19;20014;-73
2023/03/12 05:01:09;;;;;;;19.55;7.93;;;;;;;2.20;89.86;100949.84;6098631;19;20493;-73
2023/03/12 05:03:15;;;;;;;14.70;8.60;;;;;;;2.19;90.21;100955.03;6099021;19;20021;-73
2023/03/12 05:05:21;;;;;;;16.10;7.95;;;;;;;2.23;90.02;100958.47;6103006;19;20107;-73
2023/03/12 05:07:25;;;;;;;15.63;7.93;;;;;;;2.27;89.84;100963.66;6098929;19;20011;-73
2023/03/12 05:09:30;;;;;;;16.73;8.77;;;;;;;2.24;90.49;100961.06;6098468;19;20157;-73
2023/03/12 05:11:39;;;;;;;13.30;8.02;;;;;;;2.25;90.08;100949.81;6099131;19;20407;-73
2023/03/12 05:13:45;;;;;;;11.88;7.63;;;;;;;2.26;90.22;100948.09;6077917;19;20015;-73
2023/03/12 05:15:50;;;;;;;13.07;8.55;;;;;;;2.24;90.64;100948.09;6097511;19;20640;-73
2023/03/12 05:17:58;;;;;;;17.63;9.27;;;;;;;2.26;90.42;100942.91;6099649;19;20013;-74
2023/03/12 05:20:03;;;;;;;13.90;7.68;;;;;;;2.23;90.47;100946.38;6098593;19;20043;-74
2023/03/12 05:22:10;;;;;;;19.63;8.60;;;;;;;2.22;90.65;100952.44;6097750;19;20019;-73
2023/03/12 05:24:15;;;;;;;13.98;7.80;;;;;;;2.24;90.64;100950.69;6097552;19;20491;-74
2023/03/12 05:26:21;;;;;;;14.13;7.20;;;;;;;2.29;90.46;100953.25;6097888;19;20021;-73
2023/03/12 05:28:29;;;;;;;14.52;7.75;;;;;;;2.26;90.60;100955.84;6098589;19;20019;-73
2023/03/12 05:30:37;;;;;;;16.02;9.15;;;;;;;2.24;90.96;100953.28;6097539;19;20019;-73
2023/03/12 05:32:45;;;;;;;15.07;8.40;;;;;;;2.27;90.69;100957.59;6098554;19;20102;-73
2023/03/12 05:34:50;;;;;;;12.63;7.97;;;;;;;2.26;91.13;100967.09;6097571;19;20011;-73
2023/03/12 05:36:55;;;;;;;14.57;8.18;;;;;;;2.32;90.71;100961.03;6097435;19;20671;-73
2023/03/12 05:39:00;;;;;;;15.35;8.88;;;;;;;2.28;91.74;100959.31;6098371;19;20046;-73
2023/03/12 05:41:05;;;;;;;20.70;10.10;;;;;;;2.26;91.94;100958.44;6091431;19;20058;-74
2023/03/12 05:43:10;;;;;;;16.27;8.38;;;;;;;2.28;92.34;100962.75;6096963;19;20017;-73
2023/03/12 05:45:18;;;;;;;19.05;9.10;;;;;;;2.25;92.67;100949.81;6098830;19;20011;-73
2023/03/12 05:47:25;;;;;;;16.30;8.55;;;;;;;2.27;92.65;100949.81;6097744;19;21450;-73
2023/03/12 05:49:30;;;;;;;16.30;9.50;;;;;;;2.27;92.89;100937.72;6096832;19;20089;-74
2023/03/12 05:51:35;;;;;;;13.80;8.95;;;;;;;2.27;93.04;100936.84;6097750;19;20027;-73
2023/03/12 05:53:40;;;;;;;15.05;8.90;;;;;;;2.28;93.35;100933.38;6098780;19;20010;-73
2023/03/12 05:55:45;;;;;;;18.63;11.15;;;;;;;2.26;94.00;100925.59;6098273;19;20489;-73
2023/03/12 05:57:52;;;;;;;13.60;8.23;;;;;;;2.28;94.08;100931.66;6095942;19;20536;-74
2023/03/12 05:59:57;;;;;;;17.00;10.15;;;;;;;2.32;93.99;100933.38;6097552;19;20738;-73
2023/03/12 06:02:06;;;;;;;17.88;9.77;;;;;;;2.34;94.09;100941.13;6097794;19;20650;-73
2023/03/12 06:04:11;;;;;;;19.80;10.93;;;;;;;2.33;94.58;100932.50;6102377;19;20011;-73
2023/03/12 06:06:18;;;;;;;16.67;9.43;;;;;;;2.40;94.63;100936.78;6107287;19;20010;-73
2023/03/12 06:08:23;;;;;;;18.40;10.07;;;;;;;2.41;94.41;100922.06;6108678;19;20014;-73
2023/03/12 06:10:28;;;;;;;17.63;10.75;;;;;;;2.41;94.90;100937.63;6108325;19;20018;-72
2023/03/12 06:12:33;;;;;;;18.33;8.65;;;;;;;2.46;94.61;100925.50;6108783;19;20090;-73
2023/03/12 06:14:37;;;;;;;13.98;8.52;;;;;;;2.46;94.43;100925.50;6109365;19;20043;-74
2023/03/12 06:16:42;;;;;;;15.45;9.00;;;;;;;2.53;94.38;100924.59;6108664;19;20017;-74
2023/03/12 06:18:51;;;;;;;14.60;8.77;;;;;;;2.55;94.31;100932.38;6108989;19;20021;-73
2023/03/12 06:20:55;;;;;;;15.20;9.77;;;;;;;2.52;94.72;100928.06;6110321;19;20108;-73
2023/03/12 06:23:01;;;;;;;15.65;8.95;;;;;;;2.53;94.97;100911.63;6108925;19;20010;-73
2023/03/12 06:25:09;;;;;;;14.60;9.25;;;;;;;2.56;94.71;100908.16;6105346;19;20502;-73
2023/03/12 06:27:16;;;;;;;15.30;8.55;;;;;;;2.57;95.02;100904.69;6107820;19;20507;-74
2023/03/12 06:29:21;;;;;;;16.38;8.63;;;;;;;2.56;95.03;100896.06;6066183;19;20023;-73
2023/03/12 06:31:28;;;;;;;15.75;9.43;;;;;;;2.56;94.98;100896.06;6106350;19;20025;-74
2023/03/12 06:33:34;;;;;;;13.52;9.35;;;;;;;2.58;95.23;100893.44;6105751;19;20282;-74
2023/03/12 06:35:41;;;;;;;17.48;10.30;;;;;;;2.58;95.44;100883.94;6107301;19;20022;-73
2023/03/12 06:37:46;;;;;;;16.85;9.43;;;;;;;2.61;95.43;100885.66;6106672;19;20010;-73
2023/03/12 06:39:51;;;;;;;17.02;10.32;;;;;;;2.63;95.48;100886.47;6106858;19;20106;-73
2023/03/12 06:41:57;;;;;;;15.25;8.48;;;;;;;2.67;95.32;100889.94;6107289;19;20094;-73
2023/03/12 06:44:04;;;;;;;17.33;10.60;;;;;;;2.69;95.65;100890.78;6107383;19;20019;-73
2023/03/12 06:46:13;;;;;;;17.52;9.60;;;;;;;2.72;95.32;100893.34;6107051;19;20014;-73
2023/03/12 06:48:18;;;;;;;17.25;11.25;;;;;;;2.75;95.49;100890.72;6106445;19;20241;-73
2023/03/12 06:50:24;;;;;;;16.17;9.55;;;;;;;2.78;95.42;100883.78;6106945;19;20018;-73
2023/03/12 06:52:32;;;;;;;16.85;10.05;;;;;;;2.81;95.24;100875.09;6107129;19;20026;-73
2023/03/12 06:54:37;;;;;;;21.65;11.07;;;;;;;2.85;95.42;100882.00;6085188;19;20101;-73
2023/03/12 06:56:42;;;;;;;16.70;9.98;;;;;;;2.84;95.17;100875.97;6107791;19;20030;-73
2023/03/12 06:58:47;;;;;;;21.02;10.13;;;;;;;2.88;95.27;100886.31;6113383;19;20535;-74
2023/03/12 07:00:56;;;;;;;18.00;10.07;;;;;;;2.88;95.22;100892.34;6087038;19;20102;-73
2023/03/12 07:03:01;;;;;;;19.85;9.57;;;;;;;2.92;95.33;100883.66;6105519;19;20015;-73
2023/03/12 07:05:07;;;;;;;20.00;11.00;;;;;;;2.94;95.42;100883.66;6112372;19;20007;-73
2023/03/12 07:07:13;;;;;;;22.15;12.40;;;;;;;2.96;95.46;100889.69;6108892;19;20002;-73
2023/03/12 07:09:22;;;;;;;19.45;11.38;;;;;;;2.98;95.46;100893.16;6108127;19;20018;-72
2023/03/12 07:11:27;;;;;;;24.83;11.77;;;;;;;3.00;95.42;100892.25;6109296;19;20474;-73
2023/03/12 07:13:32;;;;;;;23.27;11.32;;;;;;;3.00;95.51;100892.25;6109904;19;20031;-73
2023/03/12 07:15:37;;;;;;;20.83;11.45;;;;;;;3.03;95.59;100904.34;6104242;19;20013;-73
2023/03/12 07:17:43;;;;;;;24.63;13.38;;;;;;;3.05;95.57;100905.19;6101361;19;20014;-73
2023/03/12 07:19:48;;;;;;;23.30;13.10;;;;;;;3.04;96.01;100906.06;6100480;19;20086;-73
2023/03/12 07:21:54;;;;;;;23.25;12.75;;;;;;;3.10;96.00;100895.63;6101832;19;20014;-74
2023/03/12 07:23:59;;;;;;;26.42;13.43;;;;;;;3.11;95.96;100901.66;6100650;19;20002;-72
2023/03/12 07:26:08;;;;;;;25.70;13.82;;;;;;;3.14;95.77;100899.06;6101950;19;20018;-72
2023/03/12 07:28:14;;;;;;;33.28;15.40;;;;;;;3.16;96.16;100887.78;6078738;19;20011;-72
2023/03/12 07:30:21;;;;;;;30.33;14.05;;;;;;;3.19;95.96;100892.97;6099582;19;20006;-72
2023/03/12 07:32:27;;;;;;;30.55;14.63;;;;;;;3.14;96.51;100886.94;6101336;19;20042;-72
2023/03/12 07:34:32;;;;;;;31.88;14.93;;;;;;;3.21;96.58;100890.31;6100417;19;20014;-72
2023/03/12 07:36:37;;;;;;;31.70;16.42;;;;;;;3.23;96.87;100894.63;6099655;19;20031;-73
2023/03/12 07:38:43;;;;;;;32.65;14.68;;;;;;;3.24;96.52;100896.38;6098235;19;20017;-72
2023/03/12 07:40:52;;;;;;;33.33;15.90;;;;;;;3.29;96.68;100898.91;6099245;19;20033;-73
2023/03/12 07:42:59;;;;;;;31.70;16.98;;;;;;;3.36;96.87;100908.38;6100856;19;20019;-72
2023/03/12 07:45:06;;;;;;;33.10;16.67;;;;;;;3.40;97.25;100902.28;6098465;19;20671;-73
2023/03/12 07:47:14;;;;;;;34.05;17.63;;;;;;;3.44;97.16;100908.28;6099266;19;20010;-72
2023/03/12 07:49:29;;;;;;;35.60;16.75;;;;;;;3.50;96.90;100908.22;6099735;19;20035;-72
2023/03/12 07:51:36;;;;;;;41.17;18.27;;;;;;;3.54;97.04;100909.91;6100662;19;20015;-72
2023/03/12 07:53:41;;;;;;;41.85;18.98;;;;;;;3.56;97.21;100917.72;6098379;19;20018;-72
2023/03/12 07:55:47;;;;;;;40.10;18.17;;;;;;;3.60;97.38;100915.03;6100744;19;20010;-72
2023/03/12 07:57:57;;;;;;;43.30;19.60;;;;;;;3.65;97.46;100915.00;6099478;19;20025;-72
2023/03/12 08:00:09;;;;;;;45.00;18.70;;;;;;;3.73;97.30;100915.78;6099209;19;20011;-73
2023/03/12 08:02:15;;;;;;;56.70;22.83;;;;;;;3.80;97.47;100913.97;6105067;19;20011;-73
2023/03/12 08:04:19;;;;;;;53.65;22.02;;;;;;;3.86;97.63;100917.34;6077452;19;20655;-73
2023/03/12 08:06:25;;;;;;;58.60;23.17;;;;;;;3.91;97.55;100919.91;6079993;19;20801;-73
2023/03/12 08:08:31;;;;;;;51.63;22.65;;;;;;;3.91;97.61;100925.09;6098073;19;20130;-73
2023/03/12 08:10:40;;;;;;;57.17;23.20;;;;;;;4.08;97.70;100919.69;6100210;19;20051;-73
2023/03/12 08:12:46;;;;;;;58.17;23.73;;;;;;;4.11;97.67;100922.28;6097606;19;20082;-73
2023/03/12 08:14:51;;;;;;;55.47;23.58;;;;;;;4.23;97.91;100923.84;6097475;19;20626;-74
2023/03/12 08:17:00;;;;;;;60.40;23.52;;;;;;;4.37;98.32;100927.13;6100146;19;20057;-73
2023/03/12 08:19:05;;;;;;;73.18;26.52;;;;;;;4.47;98.36;100922.66;6096570;19;20018;-73
2023/03/12 08:21:13;;;;;;;61.47;24.90;;;;;;;4.64;98.39;100922.44;6097964;19;20014;-73
2023/03/12 08:23:20;;;;;;;69.93;26.95;;;;;;;4.70;98.28;100930.13;6099490;19;20059;-73
2023/03/12 08:25:26;;;;;;;79.25;28.65;;;;;;;4.73;98.26;100923.13;6078460;19;20708;-74
2023/03/12 08:27:31;;;;;;;71.80;29.30;;;;;;;4.80;98.45;100929.97;6096991;19;20023;-74
2023/03/12 08:29:38;;;;;;;78.55;27.55;;;;;;;4.91;98.58;100934.16;6098230;19;20006;-74
2023/03/12 08:31:43;;;;;;;87.57;27.27;;;;;;;4.99;98.74;100930.53;6097937;19;20015;-74
2023/03/12 08:34:09;;;;;;;78.80;27.52;;;;;;;5.04;98.55;100930.47;6074364;19;20545;-74
2023/03/12 08:36:15;;;;;;;80.15;26.92;;;;;;;5.11;98.21;100937.31;6098454;19;20015;-73
2023/03/12 08:38:20;;;;;;;73.43;28.08;;;;;;;5.19;98.48;100943.25;6098843;19;20009;-74
2023/03/12 08:40:29;;;;;;;81.22;30.52;;;;;;;5.20;98.44;100944.97;6099848;19;20014;-74
2023/03/12 08:42:34;;;;;;;90.85;26.80;;;;;;;5.30;98.56;100950.88;6100305;19;20014;-74
2023/03/12 08:44:39;;;;;;;87.53;30.00;;;;;;;5.37;98.36;100956.84;6097194;19;20014;-74
2023/03/12 08:46:44;;;;;;;85.53;29.65;;;;;;;5.42;98.65;100960.22;6099706;19;20652;-74
2023/03/12 08:48:55;;;;;;;80.13;26.73;;;;;;;5.50;98.70;100942.69;6098764;19;20500;-75
2023/03/12 08:51:06;;;;;;;91.47;28.40;;;;;;;5.57;98.64;100939.09;6098000;19;20011;-75
2023/03/12 08:53:12;;;;;;;76.78;27.17;;;;;;;5.65;98.48;100937.22;6089559;19;20010;-76
2023/03/12 08:55:18;;;;;;;76.95;25.90;;;;;;;5.72;98.63;100933.59;6098386;19;20014;-76
2023/03/12 08:57:23;;;;;;;75.38;25.40;;;;;;;5.87;98.43;100934.19;6097676;19;20100;-77
2023/03/12 08:59:31;;;;;;;74.28;24.58;;;;;;;5.94;98.76;100933.22;6098069;19;20174;-76
2023/03/12 09:01:36;;;;;;;76.05;23.77;;;;;;;6.04;98.23;100933.91;6100533;19;20645;-77
2023/03/12 09:03:49;;;;;;;70.30;22.42;;;;;;;6.11;98.63;100938.97;6107990;19;20002;-76
2023/03/12 09:06:12;;;;;;;73.88;22.98;;;;;;;6.25;98.45;100932.59;6107699;19;20060;-77
2023/03/12 09:08:18;;;;;;;59.15;22.58;;;;;;;6.38;98.58;100934.06;6105939;19;20014;-76
2023/03/12 09:10:22;;;;;;;58.28;20.85;;;;;;;6.52;98.45;100936.34;6105861;19;20014;-76
2023/03/12 09:12:28;;;;;;;65.28;20.15;;;;;;;6.58;98.41;100939.72;6103030;19;20503;-76
2023/03/12 09:14:32;;;;;;;48.70;18.75;;;;;;;6.66;98.15;100949.09;6078016;19;20023;-76
2023/03/12 09:16:57;;;;;;;48.10;17.77;;;;;;;6.73;98.27;100943.72;6104158;19;20102;-78
2023/03/12 09:19:02;;;;;;;46.58;16.02;;;;;;;6.83;98.48;100946.97;6075719;19;20007;-76
2023/03/12 09:21:10;;;;;;;39.13;13.68;;;;;;;6.89;98.44;100949.44;6099105;19;20007;-77
2023/03/12 09:23:17;;;;;;;36.10;12.55;;;;;;;7.02;98.17;100952.63;6100606;19;20025;-77
2023/03/12 09:25:22;;;;;;;43.83;13.23;;;;;;;7.16;98.06;100945.31;6099293;19;20704;-77
2023/03/12 09:27:27;;;;;;;28.48;10.48;;;;;;;7.26;97.98;100946.78;6099217;19;20498;-77
2023/03/12 09:29:35;;;;;;;32.75;9.93;;;;;;;7.39;97.72;100941.25;6095391;19;20618;-77
2023/03/12 09:31:49;;;;;;;37.17;12.02;;;;;;;7.55;97.43;100949.56;6075409;19;20558;-77
2023/03/12 09:34:00;;;;;;;37.55;10.70;;;;;;;7.64;97.29;100946.72;6098288;19;20010;-77
2023/03/12 09:36:10;;;;;;;27.35;10.00;;;;;;;7.68;97.03;100948.31;6097338;19;20014;-77
2023/03/12 09:38:22;;;;;;;41.03;10.27;;;;;;;7.75;96.79;100956.88;6097252;19;20010;-77
2023/03/12 09:40:30;;;;;;;28.02;9.10;;;;;;;7.75;96.42;100957.72;6100749;19;20644;-77
2023/03/12 09:42:42;;;;;;;30.05;10.05;;;;;;;7.80;96.40;100963.69;6097583;19;20014;-77
2023/03/12 09:44:52;;;;;;;44.97;11.30;;;;;;;7.82;95.92;100961.91;6097083;19;20006;-76
2023/03/12 09:47:00;;;;;;;30.73;8.57;;;;;;;7.92;95.94;100959.88;6098150;19;20010;-77
2023/03/12 09:49:15;;;;;;;31.13;9.15;;;;;;;8.03;95.96;100960.47;6095938;19;20014;-77